Time;durP1;ratioP1;P1;durP2;ratioP2;P2;SDS_P1;SDS_P2;PMS_P1;PMS_P2;Temp;Humidity;BMP_temperature;BMP_pressure;BME280_temperature;BME280_humidity;BME280_pressure;Samples;Min_cycle;Max_cycle;Signal;HPM_P1;HPM_P2
2022/07/07 00:01:55;;;;;;;5.88;3.30;;;18.90;99.90;;;;;;5133407;27;20156;-53
2022/07/07 00:04:21;;;;;;;7.05;3.60;;;18.90;99.90;;;;;;5132615;27;20194;-54
2022/07/07 00:06:47;;;;;;;5.75;3.30;;;18.90;99.90;;;;;;5133004;27;20171;-54
2022/07/07 00:21:42;;;;;;;8.60;3.70;;;18.90;99.90;;;;;;5139945;27;20266;-53
2022/07/07 00:24:07;;;;;;;4.35;3.42;;;18.90;99.90;;;;;;5139713;27;20171;-53
2022/07/07 00:26:33;;;;;;;5.15;3.67;;;18.90;99.90;;;;;;5139624;27;20770;-53
2022/07/07 00:28:59;;;;;;;5.22;3.40;;;18.90;99.90;;;;;;5140017;27;20178;-53
2022/07/07 00:31:24;;;;;;;6.43;3.55;;;18.90;99.90;;;;;;5139819;27;20208;-53
2022/07/07 00:33:50;;;;;;;6.57;2.97;;;18.90;99.90;;;;;;5139188;27;20198;-53
2022/07/07 00:36:16;;;;;;;8.40;4.20;;;18.80;99.90;;;;;;5139437;27;20167;-53
2022/07/07 00:38:41;;;;;;;4.60;3.72;;;18.90;99.90;;;;;;5139661;27;20212;-54
2022/07/07 00:41:07;;;;;;;6.35;3.90;;;18.90;99.90;;;;;;5139564;27;20167;-53
2022/07/07 00:43:40;;;;;;;6.60;3.75;;;18.90;99.90;;;;;;5139330;27;20163;-53
2022/07/07 00:46:06;;;;;;;9.60;3.88;;;18.80;99.90;;;;;;5139548;27;20180;-53
2022/07/07 00:48:37;;;;;;;5.88;3.47;;;18.80;99.90;;;;;;5139818;27;20194;-53
2022/07/07 00:51:08;;;;;;;6.88;3.55;;;18.80;99.90;;;;;;5139354;27;20607;-53
2022/07/07 00:53:34;;;;;;;8.02;3.97;;;18.70;99.90;;;;;;5139387;27;20168;-53
2022/07/07 00:56:00;;;;;;;7.28;4.28;;;18.60;99.90;;;;;;5139579;27;20171;-53
2022/07/07 00:58:26;;;;;;;7.28;4.07;;;18.70;99.90;;;;;;5139723;27;20183;-53
2022/07/07 01:00:52;;;;;;;7.07;3.88;;;18.70;99.90;;;;;;5138101;27;20175;-53
2022/07/07 01:03:18;;;;;;;7.78;4.03;;;18.60;99.90;;;;;;5139653;27;20160;-53
2022/07/07 01:05:48;;;;;;;4.75;3.75;;;18.60;99.90;;;;;;5138064;27;20172;-53
2022/07/07 01:08:15;;;;;;;9.48;3.70;;;18.50;99.90;;;;;;5139379;27;20243;-53
2022/07/07 01:10:45;;;;;;;7.30;3.97;;;18.60;99.90;;;;;;5137677;27;20287;-53
2022/07/07 01:13:11;;;;;;;4.53;3.58;;;18.60;99.90;;;;;;5139357;27;20171;-53
2022/07/07 01:15:37;;;;;;;5.95;4.10;;;18.60;99.90;;;;;;5139257;27;20176;-53
2022/07/07 01:18:03;;;;;;;6.00;3.90;;;18.50;99.90;;;;;;5139275;27;20586;-58
2022/07/07 01:20:29;;;;;;;4.88;3.33;;;18.60;99.90;;;;;;5139752;27;20209;-53
2022/07/07 01:22:55;;;;;;;7.30;3.30;;;18.60;99.90;;;;;;5139130;27;20524;-53
2022/07/07 01:25:22;;;;;;;5.18;3.13;;;18.60;99.90;;;;;;5138244;27;20265;-53
2022/07/07 01:27:49;;;;;;;4.28;2.78;;;18.60;99.90;;;;;;5134996;27;20255;-53
2022/07/07 01:30:16;;;;;;;4.82;3.47;;;18.70;99.90;;;;;;5135981;27;20192;-53
2022/07/07 01:32:41;;;;;;;6.13;3.00;;;18.60;99.90;;;;;;5135767;27;20677;-53
2022/07/07 01:35:09;;;;;;;3.90;2.80;;;18.70;99.90;;;;;;5135516;27;20164;-53
2022/07/07 01:37:35;;;;;;;5.65;3.10;;;18.70;99.90;;;;;;5135820;27;20196;-53
2022/07/07 01:40:02;;;;;;;4.75;2.75;;;18.60;99.90;;;;;;5135655;27;20209;-53
2022/07/07 01:42:27;;;;;;;7.43;3.20;;;18.60;99.90;;;;;;5135964;27;20168;-53
2022/07/07 01:44:53;;;;;;;6.70;3.05;;;18.60;99.90;;;;;;5135639;27;20171;-53
2022/07/07 01:47:21;;;;;;;4.43;2.92;;;18.60;99.90;;;;;;5135519;27;20178;-53
2022/07/07 01:49:47;;;;;;;4.03;2.90;;;18.60;99.90;;;;;;5135509;27;20609;-53
2022/07/07 01:52:13;;;;;;;6.13;3.17;;;18.60;99.90;;;;;;5135524;27;20172;-53
2022/07/07 01:54:39;;;;;;;5.22;3.33;;;18.60;99.90;;;;;;5135147;27;20494;-53
2022/07/07 01:57:09;;;;;;;5.45;3.38;;;18.50;99.90;;;;;;5135456;27;20200;-53
2022/07/07 01:59:36;;;;;;;5.28;2.80;;;18.60;99.90;;;;;;5135302;27;20688;-53
2022/07/07 02:02:02;;;;;;;5.63;3.70;;;18.50;99.90;;;;;;5135608;27;20171;-53
2022/07/07 02:04:28;;;;;;;4.63;3.65;;;18.50;99.90;;;;;;5135757;27;20175;-53
2022/07/07 02:06:53;;;;;;;6.93;3.50;;;18.40;99.90;;;;;;5134818;27;20164;-53
2022/07/07 02:09:19;;;;;;;6.25;4.13;;;18.40;99.90;;;;;;5135165;27;20160;-53
2022/07/07 02:11:45;;;;;;;4.15;3.20;;;18.40;99.90;;;;;;5135025;27;20246;-53
2022/07/07 02:14:11;;;;;;;4.35;3.45;;;18.40;99.90;;;;;;5135038;27;20160;-53
2022/07/07 02:16:37;;;;;;;5.30;3.40;;;18.30;99.90;;;;;;5135193;27;20156;-53
2022/07/07 02:19:04;;;;;;;7.45;4.10;;;18.40;99.90;;;;;;5134971;27;20164;-53
2022/07/07 02:21:30;;;;;;;5.95;4.15;;;18.30;99.90;;;;;;5135234;27;20631;-53
2022/07/07 02:23:57;;;;;;;4.65;3.50;;;18.40;99.90;;;;;;5135064;27;20160;-53
2022/07/07 02:26:23;;;;;;;10.18;4.15;;;18.30;99.90;;;;;;5134674;27;20227;-53
2022/07/07 02:28:49;;;;;;;4.30;3.90;;;18.30;99.90;;;;;;5134771;27;20164;-53
2022/07/07 02:31:15;;;;;;;8.68;4.10;;;18.40;99.90;;;;;;5134554;27;20208;-54
2022/07/07 02:33:41;;;;;;;7.00;4.15;;;18.30;99.90;;;;;;5134631;27;20156;-54
2022/07/07 02:36:08;;;;;;;6.20;4.28;;;18.30;99.90;;;;;;5134637;27;20172;-53
2022/07/07 02:38:38;;;;;;;7.13;3.90;;;18.30;99.90;;;;;;5134580;27;20172;-54
2022/07/07 02:41:05;;;;;;;8.02;4.22;;;18.30;99.90;;;;;;5134550;27;20248;-54
2022/07/07 02:43:31;;;;;;;4.45;3.50;;;18.30;99.90;;;;;;5134693;27;20167;-54
2022/07/07 02:45:56;;;;;;;7.53;4.03;;;18.30;99.90;;;;;;5133435;27;20195;-53
2022/07/07 02:48:24;;;;;;;7.97;3.58;;;18.20;99.90;;;;;;5134425;27;20638;-53
2022/07/07 02:50:50;;;;;;;6.93;3.42;;;18.20;99.90;;;;;;5134152;27;20213;-53
2022/07/07 02:53:17;;;;;;;6.78;3.63;;;18.30;99.90;;;;;;5133799;27;20663;-53
2022/07/07 02:55:43;;;;;;;5.78;3.60;;;18.40;99.90;;;;;;5133427;27;20196;-53
2022/07/07 02:58:10;;;;;;;8.30;3.50;;;18.30;99.90;;;;;;5134138;27;20761;-53
2022/07/07 03:00:36;;;;;;;6.30;3.40;;;18.20;99.90;;;;;;5134080;27;20160;-53
2022/07/07 03:03:07;;;;;;;4.72;3.55;;;18.30;99.90;;;;;;5134043;27;20639;-53
2022/07/07 03:05:34;;;;;;;7.35;3.92;;;18.30;99.90;;;;;;5133874;27;20176;-53
2022/07/07 03:08:00;;;;;;;7.55;3.10;;;18.30;99.90;;;;;;5134231;27;20632;-53
2022/07/07 03:10:26;;;;;;;8.13;2.88;;;18.40;99.90;;;;;;5134125;27;20703;-53
2022/07/07 03:12:52;;;;;;;4.63;3.00;;;18.30;99.90;;;;;;5133898;27;20192;-53
2022/07/07 03:15:19;;;;;;;6.72;3.80;;;18.40;99.90;;;;;;5133765;27;20223;-53
2022/07/07 03:17:46;;;;;;;5.13;3.08;;;18.30;99.90;;;;;;5133767;27;20217;-53
2022/07/07 03:20:16;;;;;;;8.48;3.45;;;18.40;99.90;;;;;;5133782;27;20171;-53
2022/07/07 03:22:42;;;;;;;3.30;3.00;;;18.30;99.90;;;;;;5134055;27;20171;-53
2022/07/07 03:25:10;;;;;;;4.60;3.60;;;18.30;99.90;;;;;;5133446;27;20211;-54
2022/07/07 03:27:36;;;;;;;5.65;3.03;;;18.30;99.90;;;;;;5133578;27;20179;-54
2022/07/07 03:30:07;;;;;;;10.38;3.35;;;18.40;99.90;;;;;;5133238;27;20164;-54
2022/07/07 03:32:33;;;;;;;3.85;3.10;;;18.30;99.90;;;;;;5133309;27;20656;-54
2022/07/07 03:34:59;;;;;;;6.80;3.22;;;18.40;99.90;;;;;;5133781;27;20168;-54
2022/07/07 03:37:25;;;;;;;12.05;3.15;;;18.30;99.90;;;;;;5133458;27;20310;-53
2022/07/07 03:39:51;;;;;;;3.38;2.78;;;18.30;99.90;;;;;;5133357;27;20156;-54
2022/07/07 03:42:16;;;;;;;4.13;2.80;;;18.30;99.90;;;;;;5133339;27;20168;-54
2022/07/07 03:44:42;;;;;;;5.03;2.83;;;18.30;99.90;;;;;;5133236;27;20640;-54
2022/07/07 03:47:08;;;;;;;4.35;2.78;;;18.30;99.90;;;;;;5133309;27;20216;-54
2022/07/07 03:49:33;;;;;;;4.60;2.55;;;18.30;99.90;;;;;;5132787;27;20330;-54
2022/07/07 03:51:59;;;;;;;4.78;3.25;;;18.30;99.90;;;;;;5133388;27;20191;-53
2022/07/07 03:54:25;;;;;;;4.97;2.90;;;18.30;99.90;;;;;;5133096;27;20309;-53
2022/07/07 03:56:50;;;;;;;4.38;3.22;;;18.20;99.90;;;;;;5131878;27;20211;-53
2022/07/07 03:59:16;;;;;;;4.28;3.20;;;18.30;99.90;;;;;;5133093;27;20171;-53
2022/07/07 04:01:44;;;;;;;5.15;3.13;;;18.20;99.90;;;;;;5132787;27;20156;-53
2022/07/07 04:04:11;;;;;;;7.57;3.70;;;18.20;99.90;;;;;;5133159;27;20171;-53
2022/07/07 04:06:37;;;;;;;5.20;3.22;;;18.20;99.90;;;;;;5132627;27;20659;-53
2022/07/07 04:09:03;;;;;;;7.60;3.92;;;18.10;99.90;;;;;;5131594;27;20201;-53
2022/07/07 04:11:28;;;;;;;5.00;3.20;;;18.10;99.90;;;;;;5133100;27;20204;-53
2022/07/07 04:13:54;;;;;;;4.53;3.40;;;18.10;99.90;;;;;;5133215;28;20197;-53
2022/07/07 04:16:20;;;;;;;5.72;3.85;;;18.00;99.90;;;;;;5132598;28;20163;-53
2022/07/07 04:18:45;;;;;;;7.97;3.70;;;18.10;99.90;;;;;;5132869;28;20212;-53
2022/07/07 04:21:11;;;;;;;5.93;3.38;;;18.10;99.90;;;;;;5132839;28;20203;-54
2022/07/07 04:23:37;;;;;;;7.07;3.42;;;18.00;99.90;;;;;;5132895;28;20160;-54
2022/07/07 04:26:03;;;;;;;9.30;3.40;;;18.00;99.90;;;;;;5132423;28;20219;-54
2022/07/07 04:28:31;;;;;;;5.13;3.13;;;18.00;99.90;;;;;;5133216;27;20168;-54
2022/07/07 04:30:57;;;;;;;5.75;3.50;;;18.00;99.90;;;;;;5131665;28;20231;-54
2022/07/07 04:33:22;;;;;;;4.00;3.13;;;18.10;99.90;;;;;;5132754;28;20172;-54
2022/07/07 04:35:48;;;;;;;6.63;3.70;;;18.00;99.90;;;;;;5132323;28;20178;-54
2022/07/07 04:38:14;;;;;;;3.70;2.83;;;18.10;99.90;;;;;;5132227;27;20541;-54
2022/07/07 04:40:40;;;;;;;4.82;2.85;;;18.10;99.90;;;;;;5132288;28;20497;-54
2022/07/07 04:43:07;;;;;;;5.50;3.20;;;18.10;99.90;;;;;;5132294;27;20267;-54
2022/07/07 04:45:33;;;;;;;3.58;2.55;;;18.00;99.90;;;;;;5132738;27;20176;-54
2022/07/07 04:47:58;;;;;;;3.60;2.85;;;18.10;99.90;;;;;;5132811;27;20164;-54
2022/07/07 04:50:24;;;;;;;3.10;2.80;;;18.10;99.90;;;;;;5132435;28;20203;-54
2022/07/07 04:52:50;;;;;;;4.97;2.88;;;18.10;99.90;;;;;;5132513;27;20212;-54
2022/07/07 04:55:16;;;;;;;4.90;3.10;;;18.10;99.90;;;;;;5132490;28;20170;-54
2022/07/07 04:57:41;;;;;;;5.70;2.83;;;18.10;99.90;;;;;;5131240;28;20636;-54
2022/07/07 05:00:08;;;;;;;3.20;2.40;;;18.00;99.90;;;;;;5132420;27;20172;-54
2022/07/07 05:02:33;;;;;;;5.57;2.85;;;18.10;99.90;;;;;;5135203;27;20581;-54
2022/07/07 05:04:59;;;;;;;4.35;2.72;;;18.00;99.90;;;;;;5136507;27;20243;-54
2022/07/07 05:07:25;;;;;;;6.05;2.70;;;18.10;99.90;;;;;;5134720;27;20507;-54
2022/07/07 05:09:50;;;;;;;5.45;2.80;;;18.10;99.90;;;;;;5136047;27;20656;-54
2022/07/07 05:12:16;;;;;;;4.80;2.58;;;18.20;99.90;;;;;;5136179;27;20187;-54
2022/07/07 05:14:43;;;;;;;4.65;3.00;;;18.20;99.90;;;;;;5136026;27;20250;-54
2022/07/07 05:17:09;;;;;;;6.75;2.83;;;18.20;99.90;;;;;;5136097;27;20522;-55
2022/07/07 05:19:34;;;;;;;3.05;2.60;;;18.30;99.90;;;;;;5136125;27;20172;-54
2022/07/07 05:22:00;;;;;;;2.95;2.50;;;18.30;99.90;;;;;;5136286;27;20171;-54
2022/07/07 05:24:26;;;;;;;5.85;2.65;;;18.40;99.90;;;;;;5136224;27;20172;-54
2022/07/07 05:26:51;;;;;;;7.05;2.72;;;18.40;99.90;;;;;;5135743;27;20212;-54
2022/07/07 05:29:17;;;;;;;3.92;2.78;;;18.50;99.90;;;;;;5135908;27;20252;-54
2022/07/07 05:31:42;;;;;;;5.28;3.13;;;18.50;99.90;;;;;;5135871;27;20550;-54
2022/07/07 05:34:08;;;;;;;5.90;3.30;;;18.50;99.90;;;;;;5135751;27;20529;-54
2022/07/07 05:36:34;;;;;;;7.25;4.00;;;18.50;99.90;;;;;;5135767;27;20197;-54
2022/07/07 05:39:00;;;;;;;6.97;4.20;;;18.40;99.90;;;;;;5136227;27;20233;-54
2022/07/07 05:41:27;;;;;;;4.93;3.60;;;18.30;99.90;;;;;;5136281;27;20259;-54
2022/07/07 05:43:53;;;;;;;5.57;3.67;;;18.20;99.90;;;;;;5135507;27;20645;-58
2022/07/07 05:46:19;;;;;;;8.15;3.63;;;18.20;99.90;;;;;;5135460;27;20156;-54
2022/07/07 05:48:45;;;;;;;8.13;3.90;;;18.10;99.90;;;;;;5135564;27;20216;-54
2022/07/07 05:51:10;;;;;;;11.77;4.68;;;18.00;99.90;;;;;;5135321;27;20204;-54
2022/07/07 05:53:36;;;;;;;6.45;4.57;;;17.90;99.90;;;;;;5135410;27;20210;-54
2022/07/07 05:56:02;;;;;;;7.28;4.20;;;17.80;99.90;;;;;;5135697;27;20200;-54
2022/07/07 05:58:28;;;;;;;5.72;4.35;;;17.60;99.90;;;;;;5135510;27;20163;-54
2022/07/07 06:00:54;;;;;;;4.03;3.63;;;17.60;99.90;;;;;;5135289;27;20216;-54
2022/07/07 06:03:20;;;;;;;6.32;4.10;;;17.50;99.90;;;;;;5135158;27;20235;-54
2022/07/07 06:05:46;;;;;;;5.85;3.60;;;17.40;99.90;;;;;;5135402;27;20196;-53
2022/07/07 06:08:12;;;;;;;3.13;2.83;;;17.40;99.90;;;;;;5135152;27;20164;-54
2022/07/07 06:10:38;;;;;;;5.05;3.30;;;17.40;99.90;;;;;;5135000;27;20200;-54
2022/07/07 06:13:03;;;;;;;3.22;2.88;;;17.30;99.90;;;;;;5134575;27;20525;-53
2022/07/07 06:15:33;;;;;;;4.38;2.30;;;17.30;99.90;;;;;;5135263;27;20221;-54
2022/07/07 06:18:03;;;;;;;3.22;2.83;;;17.30;99.90;;;;;;5135385;27;20175;-54
2022/07/07 06:20:29;;;;;;;3.47;2.65;;;17.30;99.90;;;;;;5135480;27;20172;-53
2022/07/07 06:22:55;;;;;;;4.53;2.60;;;17.30;99.90;;;;;;5133537;27;20193;-54
2022/07/07 06:25:21;;;;;;;6.93;2.60;;;17.30;99.90;;;;;;5134890;27;20212;-56
2022/07/07 06:27:48;;;;;;;3.60;2.70;;;17.30;99.90;;;;;;5134973;27;20199;-56
2022/07/07 06:30:14;;;;;;;4.40;2.40;;;17.40;99.90;;;;;;5134621;27;20174;-55
2022/07/07 06:32:39;;;;;;;3.75;2.80;;;17.50;99.90;;;;;;5134674;27;20163;-51
2022/07/07 06:35:06;;;;;;;5.72;2.97;;;17.50;99.90;;;;;;5134829;27;20206;-51
2022/07/07 06:37:31;;;;;;;3.72;2.58;;;17.60;99.90;;;;;;5134605;27;20225;-51
2022/07/07 06:39:57;;;;;;;3.05;2.53;;;17.50;99.90;;;;;;5134738;27;20168;-51
2022/07/07 06:42:23;;;;;;;4.22;2.92;;;17.50;99.90;;;;;;5134393;27;20167;-51
2022/07/07 06:44:48;;;;;;;4.50;3.38;;;17.60;99.90;;;;;;5134448;27;20621;-51
2022/07/07 06:47:14;;;;;;;5.05;3.20;;;17.60;99.90;;;;;;5134609;27;20183;-51
2022/07/07 06:49:40;;;;;;;3.17;2.60;;;17.70;99.90;;;;;;5134409;27;20156;-52
2022/07/07 06:52:06;;;;;;;4.15;2.78;;;17.70;99.90;;;;;;5134265;27;20203;-51
2022/07/07 06:54:32;;;;;;;3.60;2.40;;;17.70;99.90;;;;;;5134182;27;20183;-51
2022/07/07 06:56:58;;;;;;;2.97;2.63;;;17.90;99.90;;;;;;5134787;27;20195;-51
2022/07/07 06:59:23;;;;;;;4.18;2.13;;;17.90;99.90;;;;;;5132864;27;20764;-51
2022/07/07 07:01:49;;;;;;;2.85;2.25;;;17.90;99.90;;;;;;5134314;27;20167;-51
2022/07/07 07:04:15;;;;;;;3.70;3.40;;;17.90;99.90;;;;;;5133985;27;20534;-51
2022/07/07 07:06:41;;;;;;;3.42;3.08;;;17.80;99.90;;;;;;5134061;27;20175;-52
2022/07/07 07:09:08;;;;;;;4.55;3.00;;;17.90;99.90;;;;;;5134006;27;20251;-51
2022/07/07 07:11:34;;;;;;;2.00;1.70;;;18.00;99.90;;;;;;5134169;27;20212;-51
2022/07/07 07:14:02;;;;;;;3.65;1.95;;;18.40;99.90;;;;;;5134216;27;20586;-51
2022/07/07 07:16:28;;;;;;;3.90;2.20;;;18.30;99.90;;;;;;5134472;27;20210;-52
2022/07/07 07:18:54;;;;;;;2.58;1.80;;;18.60;99.90;;;;;;5134063;27;20202;-51
2022/07/07 07:21:20;;;;;;;6.78;1.92;;;18.70;99.90;;;;;;5133673;27;20596;-52
2022/07/07 07:23:45;;;;;;;2.58;1.52;;;18.90;99.90;;;;;;5132956;27;20160;-52
2022/07/07 07:26:11;;;;;;;2.67;1.67;;;18.80;99.90;;;;;;5133230;27;20219;-51
2022/07/07 07:28:37;;;;;;;1.92;1.20;;;18.60;99.90;;;;;;5133466;27;20163;-51
2022/07/07 07:31:03;;;;;;;1.55;1.38;;;18.50;99.90;;;;;;5133388;27;20207;-52
2022/07/07 07:33:29;;;;;;;4.47;1.63;;;18.60;99.90;;;;;;5132365;27;20510;-51
2022/07/07 07:35:55;;;;;;;2.30;1.10;;;18.70;99.90;;;;;;5132218;27;20539;-51
2022/07/07 07:38:21;;;;;;;2.75;1.60;;;18.70;99.90;;;;;;5133528;27;20159;-51
2022/07/07 07:40:46;;;;;;;2.95;1.45;;;19.10;99.90;;;;;;5133201;27;20168;-51
2022/07/07 07:43:12;;;;;;;2.45;1.40;;;19.30;99.90;;;;;;5133283;27;20242;-51
2022/07/07 07:45:38;;;;;;;2.70;1.65;;;19.50;99.90;;;;;;5133211;27;20694;-51
2022/07/07 07:48:04;;;;;;;1.52;1.42;;;19.30;99.90;;;;;;5133666;27;20164;-51
2022/07/07 07:50:30;;;;;;;2.72;1.75;;;19.30;99.90;;;;;;5133784;27;20223;-51
2022/07/07 07:52:57;;;;;;;2.65;1.77;;;21.90;99.90;;;;;;5133649;27;20220;-52
2022/07/07 07:55:23;;;;;;;1.67;1.38;;;18.50;99.90;;;;;;5133197;27;20156;-51
2022/07/07 07:57:50;;;;;;;2.00;1.17;;;18.40;99.90;;;;;;5133139;27;20594;-51
2022/07/07 08:00:19;;;;;;;1.25;1.15;;;18.20;99.90;;;;;;5133132;27;20193;-51
2022/07/07 08:02:46;;;;;;;0.85;0.77;;;17.90;99.90;;;;;;5133203;27;20521;-51
2022/07/07 08:05:14;;;;;;;1.25;1.02;;;17.90;99.90;;;;;;5131776;27;20633;-52
2022/07/07 08:07:41;;;;;;;1.42;0.80;;;18.00;99.90;;;;;;5131587;27;20171;-52
2022/07/07 08:10:09;;;;;;;2.55;0.95;;;18.20;99.90;;;;;;5131651;27;20167;-52
2022/07/07 08:12:35;;;;;;;2.53;1.15;;;18.60;99.90;;;;;;5131778;27;20175;-53
2022/07/07 08:15:01;;;;;;;6.32;1.45;;;18.60;99.90;;;;;;5131885;27;20168;-50
2022/07/07 08:17:27;;;;;;;4.07;1.55;;;18.50;99.90;;;;;;5131823;27;20187;-54
2022/07/07 08:19:53;;;;;;;4.40;1.70;;;18.60;99.90;;;;;;5130311;28;20164;-54
2022/07/07 08:22:19;;;;;;;2.80;1.73;;;18.60;99.90;;;;;;5131324;27;20164;-55
2022/07/07 08:24:44;;;;;;;4.95;1.40;;;18.80;99.90;;;;;;5131462;27;20175;-52
2022/07/07 08:27:10;;;;;;;2.78;1.90;;;19.20;99.90;;;;;;5130345;28;20183;-53
2022/07/07 08:29:39;;;;;;;4.05;2.35;;;19.40;99.90;;;;;;5131643;27;20549;-57
2022/07/07 08:32:10;;;;;;;7.35;2.10;;;19.70;99.90;;;;;;5131538;27;20208;-55
2022/07/07 08:34:37;;;;;;;7.07;2.47;;;19.80;99.90;;;;;;5131581;28;20252;-55
2022/07/07 08:37:03;;;;;;;4.25;2.00;;;19.70;99.90;;;;;;5133956;27;20183;-59
2022/07/07 08:39:29;;;;;;;2.65;1.75;;;19.70;99.90;;;;;;5135961;27;20175;-56
2022/07/07 08:41:55;;;;;;;3.00;1.55;;;19.70;99.90;;;;;;5135593;27;20624;-57
2022/07/07 08:44:21;;;;;;;7.43;2.15;;;19.30;99.90;;;;;;5135405;27;20160;-52
2022/07/07 08:46:46;;;;;;;2.45;1.90;;;19.20;99.90;;;;;;5135549;27;20628;-57
2022/07/07 08:49:12;;;;;;;5.68;1.90;;;19.20;99.90;;;;;;5135617;27;20164;-54
2022/07/07 08:51:41;;;;;;;5.45;2.30;;;19.20;99.90;;;;;;5135302;27;20214;-56
2022/07/07 08:54:12;;;;;;;3.83;1.52;;;19.10;99.90;;;;;;5135201;27;20705;-55
2022/07/07 08:56:41;;;;;;;5.45;1.65;;;19.20;99.90;;;;;;5135317;27;20178;-54
2022/07/07 08:59:08;;;;;;;6.80;1.67;;;19.00;99.90;;;;;;5135180;27;20163;-61
2022/07/07 09:01:35;;;;;;;2.60;1.40;;;19.10;99.90;;;;;;5135088;27;20167;-55
2022/07/07 09:04:02;;;;;;;6.63;1.50;;;19.20;99.90;;;;;;5135499;27;20172;-53
2022/07/07 09:06:28;;;;;;;4.95;1.50;;;19.50;99.90;;;;;;5135294;27;20164;-54
2022/07/07 09:08:55;;;;;;;4.20;1.58;;;19.90;99.90;;;;;;5134720;27;20175;-53
2022/07/07 09:11:29;;;;;;;1.85;1.10;;;19.80;99.90;;;;;;5135076;27;20424;-55
2022/07/07 09:14:11;;;;;;;3.83;1.52;;;19.70;99.90;;;;;;5135016;27;20183;-55
2022/07/07 09:16:37;;;;;;;3.50;1.40;;;19.90;99.90;;;;;;5134751;27;20605;-55
2022/07/07 09:19:06;;;;;;;3.10;1.40;;;20.30;99.90;;;;;;5134441;27;20180;-55
2022/07/07 09:21:33;;;;;;;3.88;1.80;;;20.50;99.90;;;;;;5134715;27;20171;-55
2022/07/07 09:24:06;;;;;;;4.22;1.63;;;20.50;99.90;;;;;;5135135;27;20195;-55
2022/07/07 09:26:42;;;;;;;4.85;1.25;;;20.40;99.90;;;;;;5134569;27;20695;-55
2022/07/07 09:29:17;;;;;;;6.40;2.72;;;20.10;99.90;;;;;;5134651;27;20168;-55
2022/07/07 09:31:55;;;;;;;2.10;1.25;;;19.80;99.90;;;;;;5134545;27;20239;-55
2022/07/07 09:34:23;;;;;;;3.53;1.50;;;19.60;99.90;;;;;;5134498;27;20242;-55
2022/07/07 09:39:42;;;;;;;4.97;1.42;;;19.80;99.90;;;;;;5134495;27;20191;-55
2022/07/07 09:42:28;;;;;;;4.80;1.50;;;20.10;99.90;;;;;;5134336;27;20168;-55
2022/07/07 09:45:05;;;;;;;3.95;1.42;;;20.30;99.90;;;;;;5134217;27;20164;-55
2022/07/07 09:47:34;;;;;;;6.55;1.52;;;20.70;99.90;;;;;;5133282;27;20612;-55
2022/07/07 09:50:06;;;;;;;2.83;1.10;;;20.50;99.90;;;;;;5134611;27;20667;-55
2022/07/07 09:52:33;;;;;;;3.65;1.33;;;20.50;99.90;;;;;;5134653;27;20247;-55
2022/07/07 09:55:00;;;;;;;2.63;1.15;;;20.40;99.90;;;;;;5134273;27;20242;-55
2022/07/07 09:57:26;;;;;;;2.75;1.52;;;20.40;99.90;;;;;;5134207;27;20251;-56
2022/07/07 09:59:53;;;;;;;2.60;1.35;;;20.50;99.90;;;;;;5133978;27;20160;-55
2022/07/07 10:02:25;;;;;;;3.67;1.25;;;20.80;99.90;;;;;;5133948;27;20167;-55
2022/07/07 10:05:01;;;;;;;2.15;1.20;;;20.70;99.90;;;;;;5133780;27;20171;-55
2022/07/07 10:07:32;;;;;;;1.85;1.10;;;20.80;99.90;;;;;;5134140;27;20168;-55
2022/07/07 10:10:05;;;;;;;1.85;1.20;;;21.10;99.90;;;;;;5134051;27;20159;-55
2022/07/07 10:12:31;;;;;;;3.95;1.50;;;21.30;99.90;;;;;;5133987;27;20667;-55
2022/07/07 10:15:04;;;;;;;5.10;1.35;;;21.40;99.90;;;;;;5133892;27;20172;-55
2022/07/07 10:17:31;;;;;;;7.15;1.55;;;21.50;99.90;;;;;;5134058;27;20179;-55
2022/07/07 10:19:58;;;;;;;5.95;1.50;;;21.10;99.90;;;;;;5133958;27;20164;-55
2022/07/07 10:22:27;;;;;;;2.45;1.50;;;20.80;99.90;;;;;;5133612;27;20223;-55
2022/07/07 10:24:58;;;;;;;3.83;1.40;;;20.50;99.90;;;;;;5133499;27;20601;-55
2022/07/07 10:27:26;;;;;;;3.95;1.20;;;20.30;99.90;;;;;;5132226;27;20202;-55
2022/07/07 10:29:57;;;;;;;2.20;1.00;;;20.40;99.90;;;;;;5131472;27;20179;-55
2022/07/07 10:32:40;;;;;;;4.78;1.58;;;20.40;99.90;;;;;;5131991;27;20210;-55
2022/07/07 10:35:14;;;;;;;2.03;1.10;;;20.80;99.90;;;;;;5131899;27;20237;-55
2022/07/07 10:37:48;;;;;;;5.80;1.98;;;21.10;99.90;;;;;;5133255;27;20164;-55
2022/07/07 10:40:21;;;;;;;4.30;1.20;;;21.40;99.90;;;;;;5133300;27;20164;-55
2022/07/07 10:43:11;;;;;;;1.98;1.38;;;21.50;99.90;;;;;;5131717;27;20547;-56
2022/07/07 10:45:48;;;;;;;3.80;1.50;;;21.90;99.90;;;;;;5133086;27;20172;-55
2022/07/07 10:48:40;;;;;;;4.85;1.40;;;21.70;99.90;;;;;;5133026;27;20163;-55
2022/07/07 10:51:18;;;;;;;3.78;1.60;;;21.80;99.90;;;;;;5132862;27;20206;-55
2022/07/07 10:54:10;;;;;;;3.00;1.65;;;21.30;99.90;;;;;;5131694;27;20164;-55
2022/07/07 10:56:51;;;;;;;2.75;1.50;;;21.00;99.90;;;;;;5130314;27;20179;-55
2022/07/07 10:59:18;;;;;;;3.30;1.30;;;20.50;99.90;;;;;;5132813;27;20168;-55
2022/07/07 11:02:15;;;;;;;4.72;1.30;;;20.10;99.90;;;;;;5132892;27;20171;-55
2022/07/07 11:04:41;;;;;;;3.67;1.40;;;19.80;99.90;;;;;;5098160;27;20721;-55
2022/07/07 11:07:19;;;;;;;4.75;1.38;;;19.50;99.90;;;;;;5132748;27;20168;-55
2022/07/07 11:09:58;;;;;;;5.60;1.35;;;19.30;99.90;;;;;;5131638;27;20176;-55
2022/07/07 11:12:38;;;;;;;2.53;1.40;;;19.20;99.90;;;;;;5132438;27;20677;-55
2022/07/07 11:15:22;;;;;;;5.93;1.48;;;19.20;99.90;;;;;;5132506;27;20242;-56
2022/07/07 11:18:06;;;;;;;1.48;0.90;;;19.30;99.90;;;;;;5132745;27;20226;-55
2022/07/07 11:20:32;;;;;;;1.52;1.10;;;19.50;99.90;;;;;;5132453;27;20259;-55
2022/07/07 11:23:09;;;;;;;3.10;1.40;;;19.50;99.90;;;;;;5132769;27;20259;-55
2022/07/07 11:25:36;;;;;;;2.25;1.30;;;19.40;99.90;;;;;;5132085;27;20645;-55
2022/07/07 11:28:03;;;;;;;5.30;1.90;;;19.70;99.90;;;;;;5132296;27;20178;-55
2022/07/07 11:30:29;;;;;;;2.75;1.52;;;20.10;99.90;;;;;;5132427;27;20236;-55
2022/07/07 11:32:59;;;;;;;3.67;1.58;;;20.30;99.90;;;;;;5132403;27;20574;-56
2022/07/07 11:35:29;;;;;;;4.50;1.80;;;20.70;99.90;;;;;;5132046;27;20160;-56
2022/07/07 11:37:55;;;;;;;5.00;2.40;;;21.20;99.90;;;;;;5132093;27;20172;-56
2022/07/07 11:40:20;;;;;;;7.88;1.50;;;21.70;99.90;;;;;;5132056;27;20167;-56
2022/07/07 11:42:46;;;;;;;1.48;1.30;;;21.60;99.90;;;;;;5131859;27;20693;-56
2022/07/07 11:45:19;;;;;;;6.32;1.77;;;21.70;99.90;;;;;;5131964;27;20160;-56
2022/07/07 11:47:46;;;;;;;4.45;1.83;;;21.40;99.90;;;;;;5131730;27;20168;-56
2022/07/07 11:50:12;;;;;;;7.28;1.70;;;21.50;99.90;;;;;;5131795;27;20624;-56
2022/07/07 11:52:37;;;;;;;6.18;1.83;;;21.40;99.90;;;;;;5131610;27;20167;-56
2022/07/07 11:55:05;;;;;;;4.18;1.80;;;21.10;99.90;;;;;;5131636;27;20179;-56
2022/07/07 11:57:37;;;;;;;5.47;2.00;;;21.00;99.90;;;;;;5131832;27;20239;-56
2022/07/07 12:00:11;;;;;;;5.75;1.63;;;20.80;99.90;;;;;;5131712;27;20164;-56
2022/07/07 12:02:37;;;;;;;4.82;1.40;;;20.70;99.90;;;;;;5132000;27;20547;-56
2022/07/07 12:05:03;;;;;;;4.82;1.52;;;20.80;99.90;;;;;;5131868;27;20203;-56
2022/07/07 12:07:28;;;;;;;2.88;1.25;;;20.90;99.90;;;;;;5132360;27;20262;-56
2022/07/07 12:09:54;;;;;;;4.93;1.75;;;20.80;99.90;;;;;;5131159;27;20243;-56
2022/07/07 12:12:19;;;;;;;6.07;1.48;;;20.80;99.90;;;;;;5131777;27;20227;-56
2022/07/07 12:14:46;;;;;;;5.72;1.50;;;20.90;99.90;;;;;;5129855;27;20169;-56
2022/07/07 12:17:11;;;;;;;4.65;1.70;;;20.80;99.90;;;;;;5130277;28;20168;-56
2022/07/07 12:19:47;;;;;;;4.55;1.45;;;20.30;99.90;;;;;;5131611;28;20171;-56
2022/07/07 12:22:13;;;;;;;3.67;1.40;;;19.80;99.90;;;;;;5131803;27;20174;-56
2022/07/07 12:24:38;;;;;;;4.53;1.90;;;19.60;99.90;;;;;;5131555;27;20625;-56
2022/07/07 12:27:14;;;;;;;4.43;1.35;;;19.50;99.90;;;;;;5131254;28;20555;-56
2022/07/07 12:30:04;;;;;;;4.38;1.48;;;19.10;99.90;;;;;;5131476;27;20175;-56
2022/07/07 12:32:30;;;;;;;3.58;1.83;;;19.00;99.90;;;;;;5131603;27;20213;-56
2022/07/07 12:34:56;;;;;;;1.90;1.20;;;19.20;99.90;;;;;;5131673;28;20247;-56
2022/07/07 12:37:40;;;;;;;4.13;1.42;;;19.40;99.90;;;;;;5131265;28;20172;-56
2022/07/07 12:40:10;;;;;;;4.20;1.80;;;19.70;99.90;;;;;;5131526;27;20224;-56
2022/07/07 12:42:36;;;;;;;4.22;2.00;;;20.00;99.90;;;;;;5131196;27;20200;-56
2022/07/07 12:45:09;;;;;;;4.38;1.58;;;20.50;99.90;;;;;;5131326;27;20164;-56
2022/07/07 12:47:34;;;;;;;4.75;1.50;;;20.80;99.90;;;;;;5131413;27;20184;-56
2022/07/07 12:50:00;;;;;;;4.07;1.70;;;20.80;99.90;;;;;;5131833;28;20492;-56
2022/07/07 12:52:25;;;;;;;3.00;1.50;;;20.70;99.90;;;;;;5131094;28;20211;-56
2022/07/07 12:54:55;;;;;;;6.60;1.70;;;20.60;99.90;;;;;;5131292;28;20635;-56
2022/07/07 12:57:26;;;;;;;2.22;1.30;;;20.50;99.90;;;;;;5131219;28;20168;-56
2022/07/07 12:59:51;;;;;;;8.88;2.83;;;20.60;99.90;;;;;;5131681;27;20486;-56
2022/07/07 13:02:17;;;;;;;3.95;1.13;;;20.30;99.90;;;;;;5131133;28;20168;-56
2022/07/07 13:04:43;;;;;;;2.40;1.00;;;20.10;99.90;;;;;;5131156;28;20379;-56